sensor_id;sensor_type;location;lat;lon;timestamp;P1;durP1;ratioP1;P2;durP2;ratioP2
1679;SDS011;838;51.794;12.258;2022-07-29T00:00:04;4.83;;;2.00;;
1679;SDS011;838;51.794;12.258;2022-07-29T00:02:31;3.13;;;1.50;;
1679;SDS011;838;51.794;12.258;2022-07-29T00:04:58;3.00;;;1.63;;
1679;SDS011;838;51.794;12.258;2022-07-29T00:07:24;3.80;;;1.33;;
1679;SDS011;838;51.794;12.258;2022-07-29T00:09:49;5.97;;;1.90;;
1679;SDS011;838;51.794;12.258;2022-07-29T00:12:16;2.60;;;1.40;;
1679;SDS011;838;51.794;12.258;2022-07-29T00:14:42;5.00;;;2.20;;
1679;SDS011;838;51.794;12.258;2022-07-29T00:17:08;3.60;;;1.63;;
1679;SDS011;838;51.794;12.258;2022-07-29T00:19:33;3.27;;;1.67;;
1679;SDS011;838;51.794;12.258;2022-07-29T00:21:59;2.87;;;1.47;;
1679;SDS011;838;51.794;12.258;2022-07-29T00:24:26;3.90;;;1.57;;
1679;SDS011;838;51.794;12.258;2022-07-29T00:26:52;3.43;;;1.70;;
1679;SDS011;838;51.794;12.258;2022-07-29T00:29:17;3.00;;;1.60;;
1679;SDS011;838;51.794;12.258;2022-07-29T00:31:43;5.00;;;2.00;;
1679;SDS011;838;51.794;12.258;2022-07-29T00:34:09;4.07;;;2.20;;
1679;SDS011;838;51.794;12.258;2022-07-29T00:36:55;4.23;;;1.60;;
1679;SDS011;838;51.794;12.258;2022-07-29T00:39:21;3.73;;;1.67;;
1679;SDS011;838;51.794;12.258;2022-07-29T00:41:47;6.33;;;1.77;;
1679;SDS011;838;51.794;12.258;2022-07-29T00:44:12;3.57;;;1.60;;
1679;SDS011;838;51.794;12.258;2022-07-29T00:46:38;4.27;;;1.23;;
1679;SDS011;838;51.794;12.258;2022-07-29T00:49:04;4.80;;;1.80;;
1679;SDS011;838;51.794;12.258;2022-07-29T00:51:29;2.77;;;1.80;;
1679;SDS011;838;51.794;12.258;2022-07-29T00:53:56;3.90;;;1.53;;
1679;SDS011;838;51.794;12.258;2022-07-29T00:56:22;4.17;;;1.70;;
1679;SDS011;838;51.794;12.258;2022-07-29T00:58:48;2.67;;;1.57;;
1679;SDS011;838;51.794;12.258;2022-07-29T01:01:16;6.50;;;1.53;;
1679;SDS011;838;51.794;12.258;2022-07-29T01:03:42;3.40;;;1.50;;
1679;SDS011;838;51.794;12.258;2022-07-29T01:06:07;3.13;;;1.60;;
1679;SDS011;838;51.794;12.258;2022-07-29T01:08:34;3.50;;;1.80;;
1679;SDS011;838;51.794;12.258;2022-07-29T01:11:01;4.97;;;1.37;;
1679;SDS011;838;51.794;12.258;2022-07-29T01:13:27;4.07;;;1.50;;
1679;SDS011;838;51.794;12.258;2022-07-29T01:15:56;2.40;;;1.27;;
1679;SDS011;838;51.794;12.258;2022-07-29T01:18:37;4.63;;;1.40;;
1679;SDS011;838;51.794;12.258;2022-07-29T01:21:21;3.97;;;1.80;;
1679;SDS011;838;51.794;12.258;2022-07-29T01:26:59;3.90;;;1.77;;
1679;SDS011;838;51.794;12.258;2022-07-29T01:32:19;4.07;;;2.13;;
1679;SDS011;838;51.794;12.258;2022-07-29T01:34:50;4.50;;;1.53;;
1679;SDS011;838;51.794;12.258;2022-07-29T01:37:22;4.53;;;1.80;;
1679;SDS011;838;51.794;12.258;2022-07-29T01:39:54;4.80;;;2.00;;
1679;SDS011;838;51.794;12.258;2022-07-29T01:47:40;3.23;;;1.60;;
1679;SDS011;838;51.794;12.258;2022-07-29T01:50:12;3.23;;;1.60;;
1679;SDS011;838;51.794;12.258;2022-07-29T01:52:54;2.83;;;1.70;;
1679;SDS011;838;51.794;12.258;2022-07-29T01:55:25;6.37;;;1.80;;
1679;SDS011;838;51.794;12.258;2022-07-29T01:57:54;2.93;;;1.50;;
1679;SDS011;838;51.794;12.258;2022-07-29T02:00:22;3.93;;;1.77;;
1679;SDS011;838;51.794;12.258;2022-07-29T02:02:49;4.90;;;1.73;;
1679;SDS011;838;51.794;12.258;2022-07-29T02:05:18;3.27;;;1.50;;
1679;SDS011;838;51.794;12.258;2022-07-29T02:07:47;4.00;;;1.63;;
1679;SDS011;838;51.794;12.258;2022-07-29T02:10:14;2.57;;;1.50;;
1679;SDS011;838;51.794;12.258;2022-07-29T02:12:42;4.27;;;1.77;;
1679;SDS011;838;51.794;12.258;2022-07-29T02:15:09;2.80;;;1.87;;
1679;SDS011;838;51.794;12.258;2022-07-29T02:17:46;5.50;;;2.00;;
1679;SDS011;838;51.794;12.258;2022-07-29T02:20:16;5.17;;;1.60;;
1679;SDS011;838;51.794;12.258;2022-07-29T02:22:42;2.97;;;1.87;;
1679;SDS011;838;51.794;12.258;2022-07-29T02:25:09;5.13;;;1.60;;
1679;SDS011;838;51.794;12.258;2022-07-29T02:27:37;3.70;;;1.70;;
1679;SDS011;838;51.794;12.258;2022-07-29T02:30:04;3.00;;;1.70;;
1679;SDS011;838;51.794;12.258;2022-07-29T02:32:32;2.70;;;1.70;;
1679;SDS011;838;51.794;12.258;2022-07-29T02:35:00;3.90;;;1.80;;
1679;SDS011;838;51.794;12.258;2022-07-29T02:37:27;3.43;;;1.53;;
1679;SDS011;838;51.794;12.258;2022-07-29T02:39:54;4.33;;;2.30;;
1679;SDS011;838;51.794;12.258;2022-07-29T02:42:21;3.50;;;1.93;;
1679;SDS011;838;51.794;12.258;2022-07-29T02:44:49;4.10;;;2.00;;
1679;SDS011;838;51.794;12.258;2022-07-29T02:55:40;3.57;;;1.97;;
1679;SDS011;838;51.794;12.258;2022-07-29T03:00:37;6.80;;;2.17;;
1679;SDS011;838;51.794;12.258;2022-07-29T03:03:07;4.60;;;2.40;;
1679;SDS011;838;51.794;12.258;2022-07-29T03:05:39;3.57;;;2.07;;
1679;SDS011;838;51.794;12.258;2022-07-29T03:08:05;3.17;;;2.20;;
1679;SDS011;838;51.794;12.258;2022-07-29T03:10:33;5.77;;;1.87;;
1679;SDS011;838;51.794;12.258;2022-07-29T03:12:59;5.50;;;2.60;;
1679;SDS011;838;51.794;12.258;2022-07-29T03:15:26;3.90;;;1.90;;
1679;SDS011;838;51.794;12.258;2022-07-29T03:17:52;7.00;;;2.07;;
1679;SDS011;838;51.794;12.258;2022-07-29T03:20:20;5.90;;;2.23;;
1679;SDS011;838;51.794;12.258;2022-07-29T03:22:46;3.60;;;2.30;;
1679;SDS011;838;51.794;12.258;2022-07-29T03:25:13;4.53;;;2.50;;
1679;SDS011;838;51.794;12.258;2022-07-29T03:27:40;5.23;;;2.20;;
1679;SDS011;838;51.794;12.258;2022-07-29T03:30:07;4.30;;;2.20;;
1679;SDS011;838;51.794;12.258;2022-07-29T03:32:34;6.53;;;2.27;;
1679;SDS011;838;51.794;12.258;2022-07-29T03:35:00;3.40;;;1.83;;
1679;SDS011;838;51.794;12.258;2022-07-29T03:37:26;4.70;;;2.40;;
1679;SDS011;838;51.794;12.258;2022-07-29T03:39:52;3.40;;;1.80;;
1679;SDS011;838;51.794;12.258;2022-07-29T03:42:20;4.50;;;2.20;;
1679;SDS011;838;51.794;12.258;2022-07-29T03:44:49;6.57;;;2.10;;
1679;SDS011;838;51.794;12.258;2022-07-29T03:47:17;4.17;;;2.10;;
1679;SDS011;838;51.794;12.258;2022-07-29T03:49:46;3.47;;;2.07;;
1679;SDS011;838;51.794;12.258;2022-07-29T03:52:15;3.70;;;2.00;;
1679;SDS011;838;51.794;12.258;2022-07-29T03:54:41;4.00;;;1.93;;
1679;SDS011;838;51.794;12.258;2022-07-29T03:57:07;6.10;;;2.40;;
1679;SDS011;838;51.794;12.258;2022-07-29T03:59:36;4.20;;;1.90;;
1679;SDS011;838;51.794;12.258;2022-07-29T04:02:03;7.70;;;2.37;;
1679;SDS011;838;51.794;12.258;2022-07-29T04:04:39;4.50;;;2.40;;
1679;SDS011;838;51.794;12.258;2022-07-29T04:07:05;3.27;;;1.90;;
1679;SDS011;838;51.794;12.258;2022-07-29T04:09:30;3.63;;;2.03;;
1679;SDS011;838;51.794;12.258;2022-07-29T04:11:56;4.50;;;2.70;;
1679;SDS011;838;51.794;12.258;2022-07-29T04:14:22;3.90;;;2.27;;
1679;SDS011;838;51.794;12.258;2022-07-29T04:16:48;4.90;;;2.20;;
1679;SDS011;838;51.794;12.258;2022-07-29T04:19:13;3.47;;;2.10;;
1679;SDS011;838;51.794;12.258;2022-07-29T04:21:39;3.30;;;2.47;;
1679;SDS011;838;51.794;12.258;2022-07-29T04:24:06;4.90;;;2.30;;
1679;SDS011;838;51.794;12.258;2022-07-29T04:26:33;5.20;;;2.40;;
1679;SDS011;838;51.794;12.258;2022-07-29T04:28:59;4.17;;;2.90;;
1679;SDS011;838;51.794;12.258;2022-07-29T04:31:25;3.60;;;2.33;;
1679;SDS011;838;51.794;12.258;2022-07-29T04:33:51;5.83;;;2.50;;
1679;SDS011;838;51.794;12.258;2022-07-29T04:36:17;4.10;;;2.20;;
1679;SDS011;838;51.794;12.258;2022-07-29T04:38:43;9.13;;;2.73;;
1679;SDS011;838;51.794;12.258;2022-07-29T04:41:09;5.33;;;2.60;;
1679;SDS011;838;51.794;12.258;2022-07-29T04:43:34;5.47;;;2.30;;
1679;SDS011;838;51.794;12.258;2022-07-29T04:46:01;3.40;;;2.13;;
1679;SDS011;838;51.794;12.258;2022-07-29T04:48:27;4.90;;;2.67;;
1679;SDS011;838;51.794;12.258;2022-07-29T04:50:53;4.97;;;2.73;;
1679;SDS011;838;51.794;12.258;2022-07-29T04:53:18;4.60;;;2.57;;
1679;SDS011;838;51.794;12.258;2022-07-29T04:55:44;4.07;;;2.07;;
1679;SDS011;838;51.794;12.258;2022-07-29T04:58:10;3.10;;;2.10;;
1679;SDS011;838;51.794;12.258;2022-07-29T05:00:36;7.37;;;2.97;;
1679;SDS011;838;51.794;12.258;2022-07-29T05:03:02;9.33;;;3.00;;
1679;SDS011;838;51.794;12.258;2022-07-29T05:05:28;4.57;;;2.40;;
1679;SDS011;838;51.794;12.258;2022-07-29T05:07:54;5.57;;;2.20;;
1679;SDS011;838;51.794;12.258;2022-07-29T05:10:20;4.40;;;2.90;;
1679;SDS011;838;51.794;12.258;2022-07-29T05:12:46;4.43;;;2.70;;
1679;SDS011;838;51.794;12.258;2022-07-29T05:15:12;4.63;;;2.77;;
1679;SDS011;838;51.794;12.258;2022-07-29T05:17:38;4.10;;;2.60;;
1679;SDS011;838;51.794;12.258;2022-07-29T05:20:04;3.23;;;2.13;;
1679;SDS011;838;51.794;12.258;2022-07-29T05:22:31;6.43;;;2.70;;
1679;SDS011;838;51.794;12.258;2022-07-29T05:24:57;5.83;;;2.77;;
1679;SDS011;838;51.794;12.258;2022-07-29T05:27:22;6.40;;;2.63;;
1679;SDS011;838;51.794;12.258;2022-07-29T05:29:48;4.30;;;2.30;;
1679;SDS011;838;51.794;12.258;2022-07-29T05:32:14;3.27;;;2.70;;
1679;SDS011;838;51.794;12.258;2022-07-29T05:34:40;6.17;;;2.67;;
1679;SDS011;838;51.794;12.258;2022-07-29T05:37:06;6.53;;;2.67;;
1679;SDS011;838;51.794;12.258;2022-07-29T05:39:32;5.40;;;2.23;;
1679;SDS011;838;51.794;12.258;2022-07-29T05:41:57;5.03;;;2.43;;
1679;SDS011;838;51.794;12.258;2022-07-29T05:44:23;4.63;;;2.50;;
1679;SDS011;838;51.794;12.258;2022-07-29T05:46:49;5.10;;;2.87;;
1679;SDS011;838;51.794;12.258;2022-07-29T05:49:14;7.20;;;2.43;;
1679;SDS011;838;51.794;12.258;2022-07-29T05:51:40;4.27;;;2.80;;
1679;SDS011;838;51.794;12.258;2022-07-29T05:54:06;7.63;;;2.70;;
1679;SDS011;838;51.794;12.258;2022-07-29T05:56:31;5.50;;;3.07;;
1679;SDS011;838;51.794;12.258;2022-07-29T05:58:57;4.03;;;2.43;;
1679;SDS011;838;51.794;12.258;2022-07-29T06:01:23;3.87;;;2.70;;
1679;SDS011;838;51.794;12.258;2022-07-29T06:03:49;5.00;;;2.90;;
1679;SDS011;838;51.794;12.258;2022-07-29T06:06:15;6.57;;;2.83;;
1679;SDS011;838;51.794;12.258;2022-07-29T06:08:40;5.93;;;2.60;;
1679;SDS011;838;51.794;12.258;2022-07-29T06:11:06;4.30;;;2.90;;
1679;SDS011;838;51.794;12.258;2022-07-29T06:13:33;5.57;;;3.10;;
1679;SDS011;838;51.794;12.258;2022-07-29T06:15:59;9.40;;;3.43;;
1679;SDS011;838;51.794;12.258;2022-07-29T06:18:25;4.30;;;3.03;;
1679;SDS011;838;51.794;12.258;2022-07-29T06:20:51;6.40;;;2.80;;
1679;SDS011;838;51.794;12.258;2022-07-29T06:23:18;5.47;;;2.63;;
1679;SDS011;838;51.794;12.258;2022-07-29T06:25:45;4.00;;;2.60;;
1679;SDS011;838;51.794;12.258;2022-07-29T06:28:10;4.23;;;3.20;;
1679;SDS011;838;51.794;12.258;2022-07-29T06:30:36;5.00;;;3.33;;
1679;SDS011;838;51.794;12.258;2022-07-29T06:33:02;3.37;;;2.47;;
1679;SDS011;838;51.794;12.258;2022-07-29T06:35:28;4.27;;;2.50;;
1679;SDS011;838;51.794;12.258;2022-07-29T06:37:54;5.73;;;2.53;;
1679;SDS011;838;51.794;12.258;2022-07-29T06:40:20;4.30;;;2.30;;
1679;SDS011;838;51.794;12.258;2022-07-29T06:43:04;4.63;;;2.50;;
1679;SDS011;838;51.794;12.258;2022-07-29T06:45:30;4.00;;;2.57;;
1679;SDS011;838;51.794;12.258;2022-07-29T06:47:59;7.67;;;2.40;;
1679;SDS011;838;51.794;12.258;2022-07-29T06:50:25;8.30;;;2.83;;
1679;SDS011;838;51.794;12.258;2022-07-29T06:52:50;3.90;;;2.20;;
1679;SDS011;838;51.794;12.258;2022-07-29T06:55:16;4.00;;;2.10;;
1679;SDS011;838;51.794;12.258;2022-07-29T06:57:44;13.17;;;2.60;;
1679;SDS011;838;51.794;12.258;2022-07-29T07:00:11;5.90;;;2.40;;
1679;SDS011;838;51.794;12.258;2022-07-29T07:02:38;8.80;;;2.47;;
1679;SDS011;838;51.794;12.258;2022-07-29T07:05:04;7.53;;;3.07;;
1679;SDS011;838;51.794;12.258;2022-07-29T07:07:30;4.17;;;2.80;;
1679;SDS011;838;51.794;12.258;2022-07-29T07:09:56;4.30;;;2.90;;
1679;SDS011;838;51.794;12.258;2022-07-29T07:12:22;5.40;;;2.80;;
1679;SDS011;838;51.794;12.258;2022-07-29T07:14:48;3.67;;;2.30;;
1679;SDS011;838;51.794;12.258;2022-07-29T07:17:13;7.63;;;2.83;;
1679;SDS011;838;51.794;12.258;2022-07-29T07:19:39;5.40;;;2.90;;
1679;SDS011;838;51.794;12.258;2022-07-29T07:22:05;5.97;;;2.97;;
1679;SDS011;838;51.794;12.258;2022-07-29T07:24:31;5.73;;;2.97;;
1679;SDS011;838;51.794;12.258;2022-07-29T07:26:57;10.80;;;3.50;;
1679;SDS011;838;51.794;12.258;2022-07-29T07:29:22;5.33;;;2.87;;
1679;SDS011;838;51.794;12.258;2022-07-29T07:31:48;4.00;;;2.40;;
1679;SDS011;838;51.794;12.258;2022-07-29T07:34:14;9.40;;;3.20;;
1679;SDS011;838;51.794;12.258;2022-07-29T07:36:40;4.83;;;2.30;;
1679;SDS011;838;51.794;12.258;2022-07-29T07:39:05;4.20;;;2.77;;
1679;SDS011;838;51.794;12.258;2022-07-29T07:41:31;4.77;;;2.50;;
1679;SDS011;838;51.794;12.258;2022-07-29T07:43:57;4.53;;;2.67;;
1679;SDS011;838;51.794;12.258;2022-07-29T07:46:23;3.40;;;2.40;;
1679;SDS011;838;51.794;12.258;2022-07-29T07:48:49;4.47;;;2.70;;
1679;SDS011;838;51.794;12.258;2022-07-29T07:51:17;5.83;;;2.80;;
1679;SDS011;838;51.794;12.258;2022-07-29T07:53:42;6.17;;;2.90;;
1679;SDS011;838;51.794;12.258;2022-07-29T07:56:09;3.73;;;2.23;;
1679;SDS011;838;51.794;12.258;2022-07-29T07:58:35;5.30;;;2.20;;
1679;SDS011;838;51.794;12.258;2022-07-29T08:01:01;4.97;;;2.20;;
1679;SDS011;838;51.794;12.258;2022-07-29T08:03:27;4.40;;;2.40;;
1679;SDS011;838;51.794;12.258;2022-07-29T08:05:53;4.73;;;2.43;;
1679;SDS011;838;51.794;12.258;2022-07-29T08:08:19;4.50;;;2.40;;
1679;SDS011;838;51.794;12.258;2022-07-29T08:10:45;6.13;;;2.80;;
1679;SDS011;838;51.794;12.258;2022-07-29T08:13:17;3.37;;;2.23;;
1679;SDS011;838;51.794;12.258;2022-07-29T08:15:44;4.27;;;2.10;;
1679;SDS011;838;51.794;12.258;2022-07-29T08:18:11;8.80;;;1.87;;
1679;SDS011;838;51.794;12.258;2022-07-29T08:20:39;6.03;;;3.00;;
1679;SDS011;838;51.794;12.258;2022-07-29T08:23:06;5.03;;;2.50;;
1679;SDS011;838;51.794;12.258;2022-07-29T08:25:39;6.83;;;2.20;;
1679;SDS011;838;51.794;12.258;2022-07-29T08:28:05;4.17;;;2.40;;
1679;SDS011;838;51.794;12.258;2022-07-29T08:30:30;3.50;;;2.17;;
1679;SDS011;838;51.794;12.258;2022-07-29T08:32:57;3.67;;;2.20;;
1679;SDS011;838;51.794;12.258;2022-07-29T08:35:23;3.30;;;2.07;;
1679;SDS011;838;51.794;12.258;2022-07-29T08:37:50;4.67;;;2.80;;
1679;SDS011;838;51.794;12.258;2022-07-29T08:40:16;4.57;;;2.37;;
1679;SDS011;838;51.794;12.258;2022-07-29T08:42:43;4.60;;;2.23;;
1679;SDS011;838;51.794;12.258;2022-07-29T08:45:09;5.00;;;2.00;;
1679;SDS011;838;51.794;12.258;2022-07-29T08:47:35;4.33;;;2.23;;
1679;SDS011;838;51.794;12.258;2022-07-29T08:50:04;7.03;;;1.73;;
1679;SDS011;838;51.794;12.258;2022-07-29T08:52:31;5.07;;;2.30;;
1679;SDS011;838;51.794;12.258;2022-07-29T08:55:01;3.80;;;2.00;;
1679;SDS011;838;51.794;12.258;2022-07-29T08:57:27;5.00;;;1.87;;
1679;SDS011;838;51.794;12.258;2022-07-29T08:59:53;3.23;;;1.90;;
1679;SDS011;838;51.794;12.258;2022-07-29T09:02:22;4.33;;;1.93;;
1679;SDS011;838;51.794;12.258;2022-07-29T09:04:51;7.50;;;2.00;;
1679;SDS011;838;51.794;12.258;2022-07-29T09:07:17;3.27;;;1.87;;
1679;SDS011;838;51.794;12.258;2022-07-29T09:09:44;4.77;;;2.17;;
1679;SDS011;838;51.794;12.258;2022-07-29T09:12:10;6.63;;;1.70;;
1679;SDS011;838;51.794;12.258;2022-07-29T09:14:37;4.57;;;1.67;;
1679;SDS011;838;51.794;12.258;2022-07-29T09:17:03;4.40;;;1.77;;
1679;SDS011;838;51.794;12.258;2022-07-29T09:19:30;2.40;;;1.30;;
1679;SDS011;838;51.794;12.258;2022-07-29T09:21:59;6.93;;;1.60;;
1679;SDS011;838;51.794;12.258;2022-07-29T09:24:36;4.43;;;2.07;;
1679;SDS011;838;51.794;12.258;2022-07-29T09:27:11;3.80;;;1.60;;
1679;SDS011;838;51.794;12.258;2022-07-29T09:29:45;8.73;;;3.10;;
1679;SDS011;838;51.794;12.258;2022-07-29T09:32:11;5.33;;;1.73;;
1679;SDS011;838;51.794;12.258;2022-07-29T09:34:37;5.13;;;1.53;;
1679;SDS011;838;51.794;12.258;2022-07-29T09:37:03;4.57;;;1.80;;
1679;SDS011;838;51.794;12.258;2022-07-29T09:39:37;4.17;;;2.13;;
1679;SDS011;838;51.794;12.258;2022-07-29T09:42:10;3.40;;;1.50;;
1679;SDS011;838;51.794;12.258;2022-07-29T09:44:41;3.93;;;1.40;;
1679;SDS011;838;51.794;12.258;2022-07-29T09:47:07;3.73;;;1.80;;
1679;SDS011;838;51.794;12.258;2022-07-29T09:49:33;6.70;;;1.90;;
1679;SDS011;838;51.794;12.258;2022-07-29T09:52:02;3.07;;;1.40;;
1679;SDS011;838;51.794;12.258;2022-07-29T09:54:36;3.47;;;1.70;;
1679;SDS011;838;51.794;12.258;2022-07-29T09:57:03;2.87;;;1.50;;
1679;SDS011;838;51.794;12.258;2022-07-29T09:59:37;4.30;;;1.53;;
1679;SDS011;838;51.794;12.258;2022-07-29T10:02:11;4.03;;;1.50;;
1679;SDS011;838;51.794;12.258;2022-07-29T10:04:39;4.17;;;1.60;;
1679;SDS011;838;51.794;12.258;2022-07-29T10:07:06;3.57;;;2.03;;
1679;SDS011;838;51.794;12.258;2022-07-29T10:09:32;2.83;;;1.30;;
1679;SDS011;838;51.794;12.258;2022-07-29T10:12:12;5.10;;;1.70;;
1679;SDS011;838;51.794;12.258;2022-07-29T10:14:41;4.00;;;2.00;;
1679;SDS011;838;51.794;12.258;2022-07-29T10:17:08;4.30;;;1.73;;
1679;SDS011;838;51.794;12.258;2022-07-29T10:19:36;4.70;;;1.93;;
1679;SDS011;838;51.794;12.258;2022-07-29T10:22:04;2.67;;;1.73;;
1679;SDS011;838;51.794;12.258;2022-07-29T10:24:32;3.97;;;1.90;;
1679;SDS011;838;51.794;12.258;2022-07-29T10:26:59;6.63;;;1.70;;
1679;SDS011;838;51.794;12.258;2022-07-29T10:29:26;4.20;;;2.10;;
1679;SDS011;838;51.794;12.258;2022-07-29T10:43:27;3.27;;;1.80;;
1679;SDS011;838;51.794;12.258;2022-07-29T10:45:58;8.40;;;2.20;;
1679;SDS011;838;51.794;12.258;2022-07-29T10:48:25;3.83;;;1.60;;
1679;SDS011;838;51.794;12.258;2022-07-29T10:50:58;4.10;;;2.00;;
1679;SDS011;838;51.794;12.258;2022-07-29T10:53:45;5.00;;;2.00;;
1679;SDS011;838;51.794;12.258;2022-07-29T10:59:24;4.80;;;2.60;;
1679;SDS011;838;51.794;12.258;2022-07-29T11:01:42;3.27;;;1.50;;
1679;SDS011;838;51.794;12.258;2022-07-29T11:04:08;6.33;;;2.07;;
1679;SDS011;838;51.794;12.258;2022-07-29T11:09:33;2.60;;;1.90;;
1679;SDS011;838;51.794;12.258;2022-07-29T11:11:59;3.00;;;1.80;;
1679;SDS011;838;51.794;12.258;2022-07-29T11:17:19;3.23;;;1.70;;
1679;SDS011;838;51.794;12.258;2022-07-29T11:19:45;3.10;;;1.67;;
1679;SDS011;838;51.794;12.258;2022-07-29T11:22:11;3.17;;;1.90;;
1679;SDS011;838;51.794;12.258;2022-07-29T11:25:18;3.47;;;1.80;;
1679;SDS011;838;51.794;12.258;2022-07-29T11:27:44;3.40;;;1.93;;
1679;SDS011;838;51.794;12.258;2022-07-29T11:30:10;5.40;;;1.47;;
1679;SDS011;838;51.794;12.258;2022-07-29T11:32:41;4.80;;;2.30;;
1679;SDS011;838;51.794;12.258;2022-07-29T11:35:12;7.60;;;2.23;;
1679;SDS011;838;51.794;12.258;2022-07-29T11:37:47;3.80;;;2.00;;
1679;SDS011;838;51.794;12.258;2022-07-29T11:43:49;4.57;;;2.10;;
1679;SDS011;838;51.794;12.258;2022-07-29T11:46:17;3.90;;;1.60;;
1679;SDS011;838;51.794;12.258;2022-07-29T11:49:03;6.00;;;2.03;;
1679;SDS011;838;51.794;12.258;2022-07-29T11:51:31;3.30;;;2.00;;
1679;SDS011;838;51.794;12.258;2022-07-29T11:53:57;3.40;;;1.93;;
1679;SDS011;838;51.794;12.258;2022-07-29T11:56:23;3.97;;;2.27;;
1679;SDS011;838;51.794;12.258;2022-07-29T11:59:00;4.93;;;2.07;;
1679;SDS011;838;51.794;12.258;2022-07-29T12:01:30;5.03;;;1.70;;
1679;SDS011;838;51.794;12.258;2022-07-29T12:04:06;5.20;;;2.07;;
1679;SDS011;838;51.794;12.258;2022-07-29T12:06:35;3.77;;;1.70;;
1679;SDS011;838;51.794;12.258;2022-07-29T12:09:06;6.40;;;2.00;;
1679;SDS011;838;51.794;12.258;2022-07-29T12:11:32;3.60;;;2.10;;
1679;SDS011;838;51.794;12.258;2022-07-29T12:13:58;6.07;;;2.40;;
1679;SDS011;838;51.794;12.258;2022-07-29T12:16:33;5.33;;;1.67;;
1679;SDS011;838;51.794;12.258;2022-07-29T12:19:00;2.87;;;1.70;;
1679;SDS011;838;51.794;12.258;2022-07-29T12:21:27;3.20;;;1.50;;
1679;SDS011;838;51.794;12.258;2022-07-29T12:24:12;5.30;;;1.57;;
1679;SDS011;838;51.794;12.258;2022-07-29T12:26:48;2.97;;;1.60;;
1679;SDS011;838;51.794;12.258;2022-07-29T12:29:15;4.53;;;2.00;;
1679;SDS011;838;51.794;12.258;2022-07-29T12:31:42;4.77;;;1.80;;
1679;SDS011;838;51.794;12.258;2022-07-29T12:34:09;3.07;;;1.47;;
1679;SDS011;838;51.794;12.258;2022-07-29T12:36:40;4.23;;;1.80;;
1679;SDS011;838;51.794;12.258;2022-07-29T12:39:08;3.63;;;1.60;;
1679;SDS011;838;51.794;12.258;2022-07-29T12:41:34;2.97;;;1.70;;
1679;SDS011;838;51.794;12.258;2022-07-29T12:44:00;3.03;;;1.93;;
1679;SDS011;838;51.794;12.258;2022-07-29T12:46:26;2.83;;;1.30;;
1679;SDS011;838;51.794;12.258;2022-07-29T12:48:52;3.60;;;1.97;;
1679;SDS011;838;51.794;12.258;2022-07-29T12:51:40;2.70;;;1.30;;
1679;SDS011;838;51.794;12.258;2022-07-29T12:54:09;3.97;;;1.97;;
1679;SDS011;838;51.794;12.258;2022-07-29T12:56:37;3.10;;;1.57;;
1679;SDS011;838;51.794;12.258;2022-07-29T12:59:19;4.10;;;2.13;;
1679;SDS011;838;51.794;12.258;2022-07-29T13:01:47;5.17;;;1.80;;
1679;SDS011;838;51.794;12.258;2022-07-29T13:04:31;3.97;;;1.90;;
1679;SDS011;838;51.794;12.258;2022-07-29T13:06:59;3.20;;;1.93;;
1679;SDS011;838;51.794;12.258;2022-07-29T13:09:35;3.63;;;1.70;;
1679;SDS011;838;51.794;12.258;2022-07-29T13:12:06;2.83;;;1.40;;
1679;SDS011;838;51.794;12.258;2022-07-29T13:14:38;3.97;;;1.70;;
1679;SDS011;838;51.794;12.258;2022-07-29T13:17:13;3.87;;;1.67;;
1679;SDS011;838;51.794;12.258;2022-07-29T13:19:44;4.10;;;1.90;;
1679;SDS011;838;51.794;12.258;2022-07-29T13:22:12;2.57;;;1.60;;
1679;SDS011;838;51.794;12.258;2022-07-29T13:24:46;5.13;;;1.37;;
1679;SDS011;838;51.794;12.258;2022-07-29T13:27:13;7.37;;;1.87;;
1679;SDS011;838;51.794;12.258;2022-07-29T13:29:40;4.33;;;1.67;;
1679;SDS011;838;51.794;12.258;2022-07-29T13:32:06;5.37;;;1.70;;
1679;SDS011;838;51.794;12.258;2022-07-29T13:34:32;2.20;;;1.40;;
1679;SDS011;838;51.794;12.258;2022-07-29T13:36:58;3.60;;;1.87;;
1679;SDS011;838;51.794;12.258;2022-07-29T13:39:23;6.83;;;1.80;;
1679;SDS011;838;51.794;12.258;2022-07-29T13:41:49;2.60;;;1.50;;
1679;SDS011;838;51.794;12.258;2022-07-29T13:44:19;5.17;;;1.70;;
1679;SDS011;838;51.794;12.258;2022-07-29T13:46:53;3.73;;;1.70;;
1679;SDS011;838;51.794;12.258;2022-07-29T13:49:19;3.27;;;1.77;;
1679;SDS011;838;51.794;12.258;2022-07-29T13:51:45;4.20;;;1.93;;
1679;SDS011;838;51.794;12.258;2022-07-29T13:54:10;2.70;;;1.30;;
1679;SDS011;838;51.794;12.258;2022-07-29T13:56:36;4.10;;;2.07;;
1679;SDS011;838;51.794;12.258;2022-07-29T13:59:02;4.20;;;2.30;;
1679;SDS011;838;51.794;12.258;2022-07-29T14:01:28;4.07;;;1.90;;
1679;SDS011;838;51.794;12.258;2022-07-29T14:03:55;3.70;;;1.80;;
1679;SDS011;838;51.794;12.258;2022-07-29T14:06:21;4.50;;;1.60;;
1679;SDS011;838;51.794;12.258;2022-07-29T14:08:49;5.83;;;1.60;;
1679;SDS011;838;51.794;12.258;2022-07-29T14:11:14;3.23;;;1.70;;
1679;SDS011;838;51.794;12.258;2022-07-29T14:13:40;2.53;;;1.67;;
1679;SDS011;838;51.794;12.258;2022-07-29T14:16:06;2.47;;;1.37;;
1679;SDS011;838;51.794;12.258;2022-07-29T14:18:35;3.37;;;1.60;;
1679;SDS011;838;51.794;12.258;2022-07-29T14:21:03;3.47;;;1.70;;
1679;SDS011;838;51.794;12.258;2022-07-29T14:23:29;2.70;;;1.37;;
1679;SDS011;838;51.794;12.258;2022-07-29T14:25:55;2.83;;;1.60;;
1679;SDS011;838;51.794;12.258;2022-07-29T14:28:23;3.20;;;1.60;;
1679;SDS011;838;51.794;12.258;2022-07-29T14:30:52;3.77;;;1.50;;
1679;SDS011;838;51.794;12.258;2022-07-29T14:33:18;2.90;;;1.70;;
1679;SDS011;838;51.794;12.258;2022-07-29T14:35:44;4.40;;;1.90;;
1679;SDS011;838;51.794;12.258;2022-07-29T14:38:09;2.40;;;1.63;;
1679;SDS011;838;51.794;12.258;2022-07-29T14:40:35;3.10;;;1.50;;
1679;SDS011;838;51.794;12.258;2022-07-29T14:43:01;5.70;;;1.50;;
1679;SDS011;838;51.794;12.258;2022-07-29T14:45:27;3.70;;;1.40;;
1679;SDS011;838;51.794;12.258;2022-07-29T14:47:53;2.90;;;1.63;;
1679;SDS011;838;51.794;12.258;2022-07-29T14:50:19;4.00;;;1.63;;
1679;SDS011;838;51.794;12.258;2022-07-29T14:52:45;2.60;;;1.70;;
1679;SDS011;838;51.794;12.258;2022-07-29T14:55:11;3.10;;;1.37;;
1679;SDS011;838;51.794;12.258;2022-07-29T14:57:37;6.43;;;1.70;;
1679;SDS011;838;51.794;12.258;2022-07-29T15:00:04;2.57;;;1.30;;
1679;SDS011;838;51.794;12.258;2022-07-29T15:02:32;4.40;;;2.13;;
1679;SDS011;838;51.794;12.258;2022-07-29T15:04:58;5.20;;;1.10;;
1679;SDS011;838;51.794;12.258;2022-07-29T15:07:23;4.47;;;1.57;;
1679;SDS011;838;51.794;12.258;2022-07-29T15:09:49;5.00;;;1.77;;
1679;SDS011;838;51.794;12.258;2022-07-29T15:12:15;2.70;;;1.47;;
1679;SDS011;838;51.794;12.258;2022-07-29T15:14:44;6.57;;;1.63;;
1679;SDS011;838;51.794;12.258;2022-07-29T15:17:13;3.80;;;1.53;;
1679;SDS011;838;51.794;12.258;2022-07-29T15:19:38;2.23;;;1.47;;
1679;SDS011;838;51.794;12.258;2022-07-29T15:22:04;2.80;;;1.60;;
1679;SDS011;838;51.794;12.258;2022-07-29T15:24:30;6.50;;;1.77;;
1679;SDS011;838;51.794;12.258;2022-07-29T15:26:56;2.67;;;1.53;;
1679;SDS011;838;51.794;12.258;2022-07-29T15:29:22;3.80;;;1.93;;
1679;SDS011;838;51.794;12.258;2022-07-29T15:31:48;3.20;;;1.40;;
1679;SDS011;838;51.794;12.258;2022-07-29T15:34:14;4.90;;;1.70;;
1679;SDS011;838;51.794;12.258;2022-07-29T15:36:39;6.87;;;2.07;;
1679;SDS011;838;51.794;12.258;2022-07-29T15:39:05;3.80;;;1.40;;
1679;SDS011;838;51.794;12.258;2022-07-29T15:41:32;3.73;;;1.60;;
1679;SDS011;838;51.794;12.258;2022-07-29T15:43:58;3.30;;;1.70;;
1679;SDS011;838;51.794;12.258;2022-07-29T15:46:24;7.10;;;2.10;;
1679;SDS011;838;51.794;12.258;2022-07-29T15:49:08;3.53;;;1.80;;
1679;SDS011;838;51.794;12.258;2022-07-29T15:51:34;4.80;;;2.47;;
1679;SDS011;838;51.794;12.258;2022-07-29T15:54:00;4.17;;;2.10;;
1679;SDS011;838;51.794;12.258;2022-07-29T15:56:27;4.00;;;2.00;;
1679;SDS011;838;51.794;12.258;2022-07-29T15:58:53;4.53;;;2.10;;
1679;SDS011;838;51.794;12.258;2022-07-29T16:01:19;4.90;;;1.90;;
1679;SDS011;838;51.794;12.258;2022-07-29T16:03:45;5.40;;;2.17;;